createdAt,value
2018-09-21T00:00:14.136Z,16.90
2018-09-21T00:02:42.530Z,16.90
2018-09-21T00:05:10.926Z,16.80
2018-09-21T00:07:39.270Z,16.80
2018-09-21T00:10:07.717Z,16.80
2018-09-21T00:12:35.989Z,16.80
2018-09-21T00:15:05.645Z,16.70
2018-09-21T00:17:34.015Z,16.70
2018-09-21T00:20:02.327Z,16.60
2018-09-21T00:22:30.411Z,16.60
2018-09-21T00:24:58.873Z,16.60
2018-09-21T00:27:27.344Z,16.60
2018-09-21T00:29:55.445Z,16.40
2018-09-21T00:32:24.522Z,16.40
2018-09-21T00:34:52.754Z,16.50
2018-09-21T00:37:20.941Z,16.70
2018-09-21T00:39:49.293Z,16.60
2018-09-21T00:42:17.533Z,16.50
2018-09-21T00:44:45.652Z,16.50
2018-09-21T00:47:13.857Z,16.50
2018-09-21T00:49:42.009Z,16.40
2018-09-21T00:52:10.104Z,16.40
2018-09-21T00:54:38.240Z,16.30
2018-09-21T00:57:06.386Z,16.30
2018-09-21T00:59:34.479Z,16.30
2018-09-21T01:02:02.506Z,16.20
2018-09-21T01:04:36.459Z,16.20
2018-09-21T01:07:04.459Z,16.20
2018-09-21T01:09:32.665Z,16.10
2018-09-21T01:12:00.733Z,16.10
2018-09-21T01:14:28.897Z,16.10
2018-09-21T01:16:56.995Z,16.00
2018-09-21T01:19:25.192Z,15.90
2018-09-21T01:21:53.254Z,15.90
2018-09-21T01:24:21.330Z,15.90
2018-09-21T01:26:49.332Z,16.00
2018-09-21T01:29:17.379Z,16.10
2018-09-21T01:31:45.422Z,16.10
2018-09-21T01:34:13.742Z,16.00
2018-09-21T01:36:41.767Z,16.00
2018-09-21T01:39:10.495Z,15.90
2018-09-21T01:41:38.567Z,15.90
2018-09-21T01:44:07.749Z,16.00
2018-09-21T01:46:35.829Z,16.00
2018-09-21T01:49:03.964Z,15.90
2018-09-21T01:51:32.043Z,15.80
2018-09-21T01:54:00.046Z,15.80
2018-09-21T01:56:28.186Z,15.70
2018-09-21T01:58:56.317Z,15.70
2018-09-21T02:01:24.423Z,15.70
2018-09-21T02:03:52.544Z,15.70
2018-09-21T02:06:20.600Z,15.70
2018-09-21T02:08:48.663Z,15.60
2018-09-21T02:11:16.785Z,15.60
2018-09-21T02:13:44.898Z,15.40
2018-09-21T02:16:12.953Z,15.40
2018-09-21T02:18:40.980Z,15.50
2018-09-21T02:21:09.029Z,15.50
2018-09-21T02:23:37.128Z,15.60
2018-09-21T02:26:05.234Z,15.60
2018-09-21T02:28:33.365Z,15.60
2018-09-21T02:31:01.463Z,15.60
2018-09-21T02:33:29.604Z,15.70
2018-09-21T02:35:57.703Z,15.80
2018-09-21T02:38:25.864Z,15.80
2018-09-21T02:40:53.962Z,15.70
2018-09-21T02:43:21.966Z,15.60
2018-09-21T02:45:50.008Z,15.50
2018-09-21T02:48:18.793Z,15.40
2018-09-21T02:50:46.869Z,15.30
2018-09-21T02:53:14.924Z,15.30
2018-09-21T02:55:43.003Z,15.40
2018-09-21T02:58:11.107Z,15.30
2018-09-21T03:00:39.708Z,15.30
2018-09-21T03:03:07.743Z,15.30
2018-09-21T03:05:36.013Z,15.40
2018-09-21T03:08:04.179Z,15.40
2018-09-21T03:10:32.296Z,15.40
2018-09-21T03:13:00.457Z,15.40
2018-09-21T03:15:28.500Z,15.70
2018-09-21T03:17:56.549Z,15.60
2018-09-21T03:20:24.584Z,15.80
2018-09-21T03:22:52.646Z,15.60
2018-09-21T03:25:20.690Z,15.40
2018-09-21T03:27:48.845Z,15.40
2018-09-21T03:30:17.040Z,15.40
2018-09-21T03:32:45.090Z,15.30
2018-09-21T03:35:13.447Z,15.30
2018-09-21T03:37:41.565Z,15.30
2018-09-21T03:40:09.888Z,15.10
2018-09-21T03:42:38.064Z,15.00
2018-09-21T03:45:06.564Z,15.00
2018-09-21T03:47:34.636Z,15.10
2018-09-21T03:50:02.785Z,15.30
2018-09-21T03:52:30.853Z,15.40
2018-09-21T03:54:58.923Z,15.60
2018-09-21T03:57:27.109Z,15.50
2018-09-21T03:59:55.219Z,15.30
2018-09-21T04:02:23.276Z,15.10
2018-09-21T04:04:51.335Z,15.10
2018-09-21T04:07:19.416Z,15.00
2018-09-21T04:09:47.550Z,15.00
2018-09-21T04:12:15.607Z,15.00
2018-09-21T04:14:43.685Z,15.00
2018-09-21T04:17:11.764Z,15.10
2018-09-21T04:19:39.877Z,15.20
2018-09-21T04:22:08.219Z,15.20
2018-09-21T04:24:36.397Z,15.10
2018-09-21T04:27:04.476Z,15.10
2018-09-21T04:29:32.592Z,15.00
2018-09-21T04:32:00.654Z,15.00
2018-09-21T04:34:28.742Z,14.90
2018-09-21T04:36:56.809Z,14.90
2018-09-21T04:39:24.871Z,14.90
2018-09-21T04:41:53.007Z,14.90
2018-09-21T04:44:21.097Z,14.90
2018-09-21T04:46:49.243Z,15.00
2018-09-21T04:49:17.395Z,15.00
2018-09-21T04:51:45.518Z,15.00
2018-09-21T04:54:13.744Z,15.00
2018-09-21T04:56:41.834Z,15.10
2018-09-21T04:59:09.999Z,15.10
2018-09-21T05:01:38.321Z,15.10
2018-09-21T05:04:06.395Z,15.20
2018-09-21T05:06:34.593Z,15.20
2018-09-21T05:09:03.709Z,15.30
2018-09-21T05:11:31.822Z,15.30
2018-09-21T05:14:00.901Z,15.40
2018-09-21T05:16:29.182Z,15.50
2018-09-21T05:18:57.284Z,15.50
2018-09-21T05:21:25.443Z,15.50
2018-09-21T05:23:53.567Z,15.40
2018-09-21T05:26:21.744Z,15.40
2018-09-21T05:28:49.945Z,15.50
2018-09-21T05:31:18.127Z,15.50
2018-09-21T05:33:46.273Z,15.50
2018-09-21T05:36:14.390Z,15.40
2018-09-21T05:38:42.641Z,15.50
2018-09-21T05:41:10.821Z,15.70
2018-09-21T05:43:38.915Z,15.70
2018-09-21T05:46:07.025Z,15.90
2018-09-21T05:48:35.238Z,15.90
2018-09-21T05:51:03.406Z,15.80
2018-09-21T05:53:31.631Z,16.00
2018-09-21T05:55:59.964Z,16.20
2018-09-21T05:58:29.195Z,16.20
2018-09-21T06:00:57.364Z,16.40
2018-09-21T06:03:25.616Z,16.40
2018-09-21T06:05:53.893Z,16.40
2018-09-21T06:08:22.431Z,16.60
2018-09-21T06:10:50.608Z,16.80
2018-09-21T06:13:19.476Z,17.00
2018-09-21T06:15:48.126Z,17.00
2018-09-21T06:18:17.432Z,17.20
2018-09-21T06:20:45.540Z,17.40
2018-09-21T06:23:13.733Z,17.30
2018-09-21T06:25:41.868Z,17.80
2018-09-21T06:28:10.101Z,17.70
2018-09-21T06:30:38.350Z,17.70
2018-09-21T06:33:06.767Z,17.90
2018-09-21T06:35:35.042Z,18.50
2018-09-21T06:38:03.227Z,18.80
2018-09-21T06:40:31.812Z,19.00
2018-09-21T06:43:00.053Z,19.20
2018-09-21T06:45:28.220Z,19.20
2018-09-21T06:47:56.756Z,19.20
2018-09-21T06:50:25.426Z,19.30
2018-09-21T06:52:53.830Z,19.30
2018-09-21T06:55:22.113Z,19.40
2018-09-21T06:57:50.280Z,19.60
2018-09-21T07:00:18.903Z,19.50
2018-09-21T07:02:47.127Z,19.80
2018-09-21T07:05:16.173Z,20.00
2018-09-21T07:07:44.817Z,20.10
2018-09-21T07:10:13.784Z,20.30
2018-09-21T07:12:42.629Z,20.50
2018-09-21T07:15:10.813Z,20.60
2018-09-21T07:17:39.643Z,20.60
2018-09-21T07:20:07.900Z,20.70
2018-09-21T07:22:36.168Z,20.70
2018-09-21T07:25:05.138Z,20.70
2018-09-21T07:27:33.292Z,20.60
2018-09-21T07:30:01.415Z,20.50
2018-09-21T07:32:30.383Z,20.70
2018-09-21T07:34:58.917Z,20.60
2018-09-21T07:37:27.095Z,20.60
2018-09-21T07:39:55.226Z,20.60
2018-09-21T07:42:23.404Z,20.70
2018-09-21T07:44:51.591Z,20.80
2018-09-21T07:47:19.824Z,20.90
2018-09-21T07:49:48.014Z,21.10
2018-09-21T07:52:16.247Z,21.30
2018-09-21T07:54:44.468Z,21.50
2018-09-21T07:57:12.561Z,21.50
2018-09-21T07:59:40.891Z,21.80
2018-09-21T08:02:09.123Z,21.90
2018-09-21T08:04:37.543Z,22.10
2018-09-21T08:07:05.820Z,22.20
2018-09-21T08:09:33.965Z,22.30
2018-09-21T08:12:02.202Z,22.30
2018-09-21T08:14:30.404Z,22.40
2018-09-21T08:16:58.878Z,22.40
2018-09-21T08:19:27.235Z,22.40
2018-09-21T08:21:55.446Z,22.40
2018-09-21T08:24:23.687Z,22.40
2018-09-21T08:26:51.955Z,22.50
2018-09-21T08:29:20.208Z,22.60
2018-09-21T08:31:48.506Z,22.70
2018-09-21T08:34:16.639Z,22.80
2018-09-21T08:36:44.913Z,22.90
2018-09-21T08:39:13.099Z,23.00
2018-09-21T08:41:42.025Z,23.00
2018-09-21T08:44:10.843Z,23.20
2018-09-21T08:46:39.325Z,23.20
2018-09-21T08:49:07.417Z,23.10
2018-09-21T08:51:35.630Z,23.10
2018-09-21T08:54:04.076Z,23.10
2018-09-21T08:56:32.444Z,23.00
2018-09-21T08:59:00.608Z,23.10
2018-09-21T09:01:28.933Z,23.20
2018-09-21T09:03:57.040Z,23.10
2018-09-21T09:06:25.206Z,22.90
2018-09-21T09:08:53.385Z,23.00
2018-09-21T09:11:21.717Z,23.10
2018-09-21T09:13:49.779Z,23.20
2018-09-21T09:16:17.896Z,23.30
2018-09-21T09:18:46.170Z,23.40
2018-09-21T09:21:14.252Z,23.40
2018-09-21T09:23:42.568Z,23.30
2018-09-21T09:26:10.601Z,23.20
2018-09-21T09:28:38.721Z,23.20
2018-09-21T09:31:07.247Z,23.20
2018-09-21T09:33:35.406Z,23.00
2018-09-21T09:36:03.704Z,23.10
2018-09-21T09:38:32.016Z,23.10
2018-09-21T09:41:00.346Z,23.10
2018-09-21T09:43:28.562Z,23.10
2018-09-21T09:45:56.767Z,23.10
2018-09-21T09:48:25.016Z,23.10
2018-09-21T09:50:53.166Z,23.00
2018-09-21T09:53:21.501Z,23.20
2018-09-21T09:55:49.672Z,23.30
2018-09-21T09:58:18.064Z,23.40
2018-09-21T10:00:51.836Z,23.50
2018-09-21T10:03:21.485Z,23.60
2018-09-21T10:05:49.558Z,23.70
2018-09-21T10:08:17.856Z,23.80
2018-09-21T10:10:46.094Z,23.90
2018-09-21T10:13:14.361Z,23.90
2018-09-21T10:18:20.364Z,23.80
2018-09-21T10:20:48.561Z,23.90
2018-09-21T10:23:16.611Z,23.80
2018-09-21T10:25:44.701Z,23.90
2018-09-21T10:28:13.103Z,24.00
2018-09-21T10:30:41.234Z,24.10
2018-09-21T10:33:09.444Z,24.00
2018-09-21T10:35:37.786Z,24.00
2018-09-21T10:38:06.192Z,24.00
2018-09-21T10:40:34.283Z,23.90
2018-09-21T10:43:02.519Z,23.90
2018-09-21T10:45:31.327Z,23.90
2018-09-21T10:47:59.764Z,24.00
2018-09-21T10:50:28.015Z,23.90
2018-09-21T10:52:56.112Z,24.00
2018-09-21T10:55:24.653Z,24.00
2018-09-21T10:57:52.828Z,23.90
2018-09-21T11:00:20.949Z,23.90
2018-09-21T11:02:49.214Z,23.90
2018-09-21T11:05:17.435Z,24.10
2018-09-21T11:07:45.609Z,24.00
2018-09-21T11:10:14.949Z,24.00
2018-09-21T11:12:43.228Z,24.00
2018-09-21T11:15:11.448Z,24.00
2018-09-21T11:17:39.647Z,24.00
2018-09-21T11:20:08.699Z,24.00
2018-09-21T11:22:36.947Z,23.90
2018-09-21T11:25:05.142Z,23.90
2018-09-21T11:27:33.246Z,24.10
2018-09-21T11:30:01.378Z,24.00
2018-09-21T11:32:29.657Z,24.00
2018-09-21T11:34:57.820Z,24.00
2018-09-21T11:37:26.056Z,24.00
2018-09-21T11:39:54.190Z,23.80
2018-09-21T11:42:22.344Z,24.00
2018-09-21T11:44:50.577Z,24.00
2018-09-21T11:47:19.067Z,24.10
2018-09-21T11:49:47.176Z,24.00
2018-09-21T11:52:15.510Z,24.00
2018-09-21T11:54:43.728Z,23.90
2018-09-21T11:57:12.005Z,23.90
2018-09-21T11:59:40.280Z,23.90
2018-09-21T12:02:08.439Z,24.10
2018-09-21T12:04:36.584Z,24.10
2018-09-21T12:07:04.698Z,24.20
2018-09-21T12:09:32.740Z,24.10
2018-09-21T12:12:00.919Z,24.20
2018-09-21T12:14:29.051Z,24.20
2018-09-21T12:16:57.482Z,24.30
2018-09-21T12:19:25.605Z,24.30
2018-09-21T12:21:53.756Z,24.20
2018-09-21T12:24:22.103Z,24.40
2018-09-21T12:26:50.265Z,24.30
2018-09-21T12:29:18.836Z,24.10
2018-09-21T12:31:46.985Z,23.90
2018-09-21T12:34:15.179Z,23.70
2018-09-21T12:36:43.745Z,23.40
2018-09-21T12:39:13.245Z,23.10
2018-09-21T12:41:41.642Z,22.70
2018-09-21T12:44:11.677Z,22.60
2018-09-21T12:46:39.999Z,22.60
2018-09-21T12:49:08.192Z,22.50
2018-09-21T12:51:36.393Z,22.20
2018-09-21T12:54:04.724Z,22.00
2018-09-21T12:56:33.020Z,21.90
2018-09-21T12:59:01.206Z,21.70
2018-09-21T13:01:29.451Z,21.40
2018-09-21T13:03:57.555Z,21.30
2018-09-21T13:06:26.017Z,21.00
2018-09-21T13:08:54.122Z,20.70
2018-09-21T13:11:22.447Z,20.60
2018-09-21T13:13:50.626Z,20.70
2018-09-21T13:16:18.837Z,20.80
2018-09-21T13:18:47.061Z,19.30
2018-09-21T13:21:15.444Z,17.20
2018-09-21T13:23:43.684Z,16.30
2018-09-21T13:26:11.853Z,15.70
2018-09-21T13:28:40.229Z,15.30
2018-09-21T13:31:08.509Z,15.00
2018-09-21T13:33:36.756Z,14.90
2018-09-21T13:36:05.124Z,14.70
2018-09-21T13:38:33.453Z,14.60
2018-09-21T13:41:01.647Z,14.60
2018-09-21T13:43:29.994Z,14.50
2018-09-21T13:45:58.120Z,14.40
2018-09-21T13:48:26.355Z,14.40
2018-09-21T13:50:54.627Z,14.30
2018-09-21T13:53:22.857Z,14.30
2018-09-21T13:55:51.093Z,14.30
2018-09-21T13:58:19.324Z,14.30
2018-09-21T14:00:47.467Z,14.30
2018-09-21T14:03:15.714Z,14.20
2018-09-21T14:05:43.887Z,14.20
2018-09-21T14:08:12.359Z,14.20
2018-09-21T14:10:40.689Z,14.20
2018-09-21T14:13:08.905Z,14.10
2018-09-21T14:15:37.344Z,14.30
2018-09-21T14:18:05.753Z,14.20
2018-09-21T14:20:34.229Z,14.30
2018-09-21T14:23:02.639Z,14.40
2018-09-21T14:25:31.054Z,14.50
2018-09-21T14:27:59.280Z,14.50
2018-09-21T14:30:28.193Z,14.30
2018-09-21T14:32:56.438Z,14.30
2018-09-21T14:35:24.627Z,14.30
2018-09-21T14:37:52.937Z,14.30
2018-09-21T14:40:21.477Z,14.50
2018-09-21T14:42:49.741Z,14.50
2018-09-21T14:45:18.021Z,14.50
2018-09-21T14:47:46.142Z,14.60
2018-09-21T14:50:14.556Z,14.60
2018-09-21T14:52:42.759Z,14.70
2018-09-21T14:55:10.985Z,14.70
2018-09-21T14:57:39.638Z,14.60
2018-09-21T15:00:07.984Z,14.60
2018-09-21T15:02:36.228Z,14.60
2018-09-21T15:05:04.562Z,14.80
2018-09-21T15:07:32.820Z,14.80
2018-09-21T15:10:01.078Z,14.80
2018-09-21T15:12:29.656Z,14.80
2018-09-21T15:14:58.090Z,14.90
2018-09-21T15:17:26.477Z,14.90
2018-09-21T15:19:54.811Z,15.00
2018-09-21T15:22:23.134Z,15.10
2018-09-21T15:24:51.318Z,15.20
2018-09-21T15:27:19.471Z,15.30
2018-09-21T15:29:47.716Z,15.40
2018-09-21T15:32:16.124Z,15.60
2018-09-21T15:34:44.983Z,15.80
2018-09-21T15:37:13.665Z,16.00
2018-09-21T15:39:41.940Z,16.00
2018-09-21T15:42:10.327Z,16.10
2018-09-21T15:44:38.572Z,16.50
2018-09-21T15:47:07.041Z,16.60
2018-09-21T15:49:35.395Z,16.50
2018-09-21T15:52:04.491Z,16.20
2018-09-21T15:54:32.675Z,16.10
2018-09-21T15:57:00.983Z,16.00
2018-09-21T15:59:29.596Z,16.00
2018-09-21T16:01:58.199Z,15.90
2018-09-21T16:04:26.511Z,15.80
2018-09-21T16:06:54.824Z,15.80
2018-09-21T16:09:23.070Z,15.70
2018-09-21T16:11:51.377Z,15.80
2018-09-21T16:14:19.734Z,15.90
2018-09-21T16:16:48.002Z,16.00
2018-09-21T16:19:16.261Z,16.10
2018-09-21T16:21:44.770Z,16.20
2018-09-21T16:24:13.111Z,16.20
2018-09-21T16:26:41.423Z,16.20
2018-09-21T16:29:09.662Z,16.10
2018-09-21T16:31:37.925Z,16.00
2018-09-21T16:34:06.324Z,15.90
2018-09-21T16:36:34.518Z,15.90
2018-09-21T16:39:02.819Z,15.80
2018-09-21T16:41:31.069Z,15.90
2018-09-21T16:43:59.367Z,15.80
2018-09-21T16:46:27.680Z,15.70
2018-09-21T16:48:55.891Z,15.60
2018-09-21T16:51:24.255Z,15.60
2018-09-21T16:53:52.532Z,15.60
2018-09-21T16:56:20.896Z,15.60
2018-09-21T16:58:49.305Z,15.50
2018-09-21T17:01:17.527Z,15.40
2018-09-21T17:03:45.759Z,15.40
2018-09-21T17:06:13.976Z,15.60
2018-09-21T17:08:42.217Z,15.50
2018-09-21T17:11:10.426Z,15.50
2018-09-21T17:13:38.765Z,15.50
2018-09-21T17:16:06.989Z,15.60
2018-09-21T17:18:35.272Z,15.50
2018-09-21T17:21:03.617Z,15.50
2018-09-21T17:23:31.940Z,15.50
2018-09-21T17:26:00.225Z,15.50
2018-09-21T17:28:28.539Z,15.50
2018-09-21T17:30:56.785Z,15.50
2018-09-21T17:33:24.957Z,15.60
2018-09-21T17:35:53.248Z,15.60
2018-09-21T17:38:21.440Z,15.50
2018-09-21T17:40:49.755Z,15.50
2018-09-21T17:43:18.033Z,15.50
2018-09-21T17:45:46.191Z,15.40
2018-09-21T17:48:14.407Z,15.50
2018-09-21T17:50:42.852Z,15.50
2018-09-21T17:53:11.095Z,15.40
2018-09-21T17:55:39.395Z,15.40
2018-09-21T17:58:07.884Z,15.30
2018-09-21T18:00:36.251Z,15.40
2018-09-21T18:03:04.645Z,15.40
2018-09-21T18:05:33.205Z,15.40
2018-09-21T18:08:01.674Z,15.30
2018-09-21T18:10:30.047Z,15.30
2018-09-21T18:12:58.420Z,15.30
2018-09-21T18:15:26.823Z,15.30
2018-09-21T18:17:55.310Z,15.30
2018-09-21T18:20:23.595Z,15.30
2018-09-21T18:22:51.937Z,15.30
2018-09-21T18:25:20.285Z,15.30
2018-09-21T18:27:48.541Z,15.30
2018-09-21T18:30:17.593Z,15.40
2018-09-21T18:32:45.937Z,15.50
2018-09-21T18:35:14.688Z,15.50
2018-09-21T18:37:43.304Z,15.30
2018-09-21T18:40:11.651Z,15.30
2018-09-21T18:42:40.195Z,15.30
2018-09-21T18:45:08.648Z,15.40
2018-09-21T18:47:37.125Z,15.40
2018-09-21T18:50:05.495Z,15.40
2018-09-21T18:52:34.012Z,15.50
2018-09-21T18:55:02.568Z,15.40
2018-09-21T18:57:31.261Z,15.30
2018-09-21T18:59:59.799Z,15.30
2018-09-21T19:02:28.126Z,15.30
2018-09-21T19:04:56.432Z,15.30
2018-09-21T19:07:30.581Z,15.30
2018-09-21T19:09:59.791Z,15.30
2018-09-21T19:12:28.745Z,15.20
2018-09-21T19:14:57.343Z,15.10
2018-09-21T19:17:26.095Z,15.10
2018-09-21T19:19:54.635Z,15.00
2018-09-21T19:22:23.415Z,15.00
2018-09-21T19:24:52.091Z,14.90
2018-09-21T19:27:20.878Z,14.80
2018-09-21T19:29:50.246Z,14.80
2018-09-21T19:32:19.001Z,14.70
2018-09-21T19:34:47.512Z,14.60
2018-09-21T19:37:15.930Z,14.70
2018-09-21T19:39:44.175Z,14.60
2018-09-21T19:42:12.564Z,14.70
2018-09-21T19:44:41.073Z,14.70
2018-09-21T19:47:09.326Z,14.70
2018-09-21T19:49:37.565Z,14.80
2018-09-21T19:52:06.133Z,14.70
2018-09-21T19:54:34.405Z,14.70
2018-09-21T19:57:02.649Z,14.70
2018-09-21T19:59:31.026Z,14.70
2018-09-21T20:01:59.219Z,14.70
2018-09-21T20:04:27.669Z,14.70
2018-09-21T20:06:55.940Z,14.70
2018-09-21T20:09:24.172Z,14.70
2018-09-21T20:11:52.487Z,14.80
2018-09-21T20:14:21.143Z,14.80
2018-09-21T20:16:49.545Z,14.70
2018-09-21T20:19:17.904Z,14.70
2018-09-21T20:21:46.378Z,14.80
2018-09-21T20:24:14.889Z,14.70
2018-09-21T20:26:43.178Z,14.60
2018-09-21T20:29:11.816Z,14.50
2018-09-21T20:31:45.805Z,14.40
2018-09-21T20:34:14.283Z,14.20
2018-09-21T20:36:42.912Z,14.10
2018-09-21T20:39:11.282Z,14.00
2018-09-21T20:41:39.805Z,13.90
2018-09-21T20:44:08.233Z,13.80
2018-09-21T20:46:36.607Z,13.80
2018-09-21T20:49:04.970Z,13.70
2018-09-21T20:51:33.473Z,13.70
2018-09-21T20:54:01.676Z,13.60
2018-09-21T20:56:30.197Z,13.60
2018-09-21T20:58:58.437Z,13.50
2018-09-21T21:01:26.836Z,13.60
2018-09-21T21:03:55.178Z,13.70
2018-09-21T21:06:23.554Z,13.60
2018-09-21T21:08:51.941Z,13.70
2018-09-21T21:11:20.167Z,14.00
2018-09-21T21:13:48.557Z,13.90
2018-09-21T21:16:16.872Z,13.90
2018-09-21T21:18:45.016Z,14.10
2018-09-21T21:21:14.049Z,14.00
2018-09-21T21:23:42.265Z,14.10
2018-09-21T21:26:10.591Z,14.30
2018-09-21T21:28:38.834Z,14.40
2018-09-21T21:31:06.973Z,14.40
2018-09-21T21:33:35.274Z,14.30
2018-09-21T21:36:03.517Z,14.20
2018-09-21T21:38:31.700Z,14.30
2018-09-21T21:40:59.877Z,14.40
2018-09-21T21:43:28.089Z,14.40
2018-09-21T21:45:56.244Z,14.40
2018-09-21T21:48:24.477Z,14.40
2018-09-21T21:50:53.003Z,14.40
2018-09-21T21:53:21.317Z,14.30
2018-09-21T21:55:49.389Z,14.20
2018-09-21T21:58:17.688Z,14.10
2018-09-21T22:00:51.486Z,14.10
2018-09-21T22:03:19.753Z,14.30
2018-09-21T22:05:47.895Z,14.40
2018-09-21T22:08:16.197Z,14.20
2018-09-21T22:10:44.339Z,14.20
2018-09-21T22:13:18.077Z,14.10
2018-09-21T22:15:46.143Z,14.40
2018-09-21T22:18:14.265Z,14.10
2018-09-21T22:20:42.456Z,14.10
2018-09-21T22:23:10.633Z,14.10
2018-09-21T22:25:38.843Z,14.00
2018-09-21T22:28:07.027Z,14.10
2018-09-21T22:30:35.183Z,14.00
2018-09-21T22:33:03.353Z,13.90
2018-09-21T22:35:31.726Z,13.80
2018-09-21T22:37:59.872Z,13.70
2018-09-21T22:40:28.001Z,13.40
2018-09-21T22:42:56.101Z,13.30
2018-09-21T22:45:24.310Z,13.10
2018-09-21T22:47:52.592Z,13.10
2018-09-21T22:50:21.443Z,12.90
2018-09-21T22:52:49.618Z,12.90
2018-09-21T22:55:17.777Z,12.80
2018-09-21T22:57:45.898Z,12.80
2018-09-21T23:00:14.574Z,12.80
2018-09-21T23:02:42.716Z,12.80
2018-09-21T23:05:10.873Z,12.70
2018-09-21T23:07:39.008Z,12.70
2018-09-21T23:10:07.201Z,12.70
2018-09-21T23:12:35.344Z,12.70
2018-09-21T23:15:03.610Z,12.80
2018-09-21T23:17:31.842Z,12.80
2018-09-21T23:20:00.042Z,12.90
2018-09-21T23:22:28.259Z,12.80
2018-09-21T23:24:56.399Z,12.90
2018-09-21T23:27:24.495Z,12.90
2018-09-21T23:29:52.628Z,12.80
2018-09-21T23:32:20.901Z,12.80
2018-09-21T23:34:49.024Z,12.80
2018-09-21T23:37:17.766Z,12.70
2018-09-21T23:39:45.901Z,12.60
2018-09-21T23:42:14.041Z,12.50
2018-09-21T23:44:42.234Z,12.40
2018-09-21T23:47:10.333Z,12.30
2018-09-21T23:49:38.480Z,12.40
2018-09-21T23:52:06.586Z,12.40
2018-09-21T23:54:34.802Z,12.50
2018-09-21T23:57:02.878Z,12.50
2018-09-21T23:59:31.042Z,12.50
